sensor_id;sensor_type;location;lat;lon;timestamp;temperature;humidity
69208;SHT31;56321;47.662;8.878;2023-02-12T00:02:22;1.25;63.94
69208;SHT31;56321;47.662;8.878;2023-02-12T00:04:47;1.22;63.77
69208;SHT31;56321;47.662;8.878;2023-02-12T00:07:12;1.22;63.89
69208;SHT31;56321;47.662;8.878;2023-02-12T00:09:38;1.19;64.00
69208;SHT31;56321;47.662;8.878;2023-02-12T00:12:03;1.19;64.01
69208;SHT31;56321;47.662;8.878;2023-02-12T00:14:29;1.16;64.06
69208;SHT31;56321;47.662;8.878;2023-02-12T00:16:54;1.18;63.96
69208;SHT31;56321;47.662;8.878;2023-02-12T00:19:19;1.14;64.14
69208;SHT31;56321;47.662;8.878;2023-02-12T00:21:45;1.12;64.41
69208;SHT31;56321;47.662;8.878;2023-02-12T00:24:10;1.16;64.35
69208;SHT31;56321;47.662;8.878;2023-02-12T00:26:35;1.16;64.29
69208;SHT31;56321;47.662;8.878;2023-02-12T00:29:01;1.14;64.24
69208;SHT31;56321;47.662;8.878;2023-02-12T00:31:28;1.14;64.26
69208;SHT31;56321;47.662;8.878;2023-02-12T00:33:55;1.11;64.43
69208;SHT31;56321;47.662;8.878;2023-02-12T00:36:24;1.11;64.28
69208;SHT31;56321;47.662;8.878;2023-02-12T00:38:52;1.11;64.28
69208;SHT31;56321;47.662;8.878;2023-02-12T00:41:17;1.09;64.36
69208;SHT31;56321;47.662;8.878;2023-02-12T00:43:43;1.12;64.32
69208;SHT31;56321;47.662;8.878;2023-02-12T00:46:08;1.12;64.50
69208;SHT31;56321;47.662;8.878;2023-02-12T00:48:35;1.05;64.43
69208;SHT31;56321;47.662;8.878;2023-02-12T00:51:01;1.08;64.44
69208;SHT31;56321;47.662;8.878;2023-02-12T00:53:26;1.08;64.50
69208;SHT31;56321;47.662;8.878;2023-02-12T00:55:52;1.04;64.49
69208;SHT31;56321;47.662;8.878;2023-02-12T00:58:17;1.05;64.45
69208;SHT31;56321;47.662;8.878;2023-02-12T01:00:42;1.02;64.58
69208;SHT31;56321;47.662;8.878;2023-02-12T01:03:08;1.05;64.84
69208;SHT31;56321;47.662;8.878;2023-02-12T01:05:34;1.04;64.66
69208;SHT31;56321;47.662;8.878;2023-02-12T01:08:00;1.02;64.88
69208;SHT31;56321;47.662;8.878;2023-02-12T01:10:26;1.01;64.72
69208;SHT31;56321;47.662;8.878;2023-02-12T01:12:52;1.01;64.68
69208;SHT31;56321;47.662;8.878;2023-02-12T01:15:17;1.01;64.75
69208;SHT31;56321;47.662;8.878;2023-02-12T01:17:43;0.99;64.95
69208;SHT31;56321;47.662;8.878;2023-02-12T01:20:12;0.98;64.99
69208;SHT31;56321;47.662;8.878;2023-02-12T01:22:38;1.01;65.01
69208;SHT31;56321;47.662;8.878;2023-02-12T01:25:04;0.97;65.02
69208;SHT31;56321;47.662;8.878;2023-02-12T01:27:31;0.95;65.13
69208;SHT31;56321;47.662;8.878;2023-02-12T01:29:56;0.94;65.26
69208;SHT31;56321;47.662;8.878;2023-02-12T01:32:22;0.97;65.17
69208;SHT31;56321;47.662;8.878;2023-02-12T01:34:47;0.94;65.39
69208;SHT31;56321;47.662;8.878;2023-02-12T01:37:12;0.92;65.32
69208;SHT31;56321;47.662;8.878;2023-02-12T01:39:38;0.92;65.51
69208;SHT31;56321;47.662;8.878;2023-02-12T01:42:03;0.92;65.36
69208;SHT31;56321;47.662;8.878;2023-02-12T01:44:30;0.88;65.23
69208;SHT31;56321;47.662;8.878;2023-02-12T01:46:58;0.87;65.25
69208;SHT31;56321;47.662;8.878;2023-02-12T01:49:48;0.85;65.31
69208;SHT31;56321;47.662;8.878;2023-02-12T01:54:44;0.83;65.48
69208;SHT31;56321;47.662;8.878;2023-02-12T01:57:11;0.81;65.58
69208;SHT31;56321;47.662;8.878;2023-02-12T01:59:39;0.83;65.58
69208;SHT31;56321;47.662;8.878;2023-02-12T02:02:05;0.84;65.61
69208;SHT31;56321;47.662;8.878;2023-02-12T02:04:55;0.80;65.67
69208;SHT31;56321;47.662;8.878;2023-02-12T02:07:22;0.78;65.80
69208;SHT31;56321;47.662;8.878;2023-02-12T02:09:47;0.78;65.71
69208;SHT31;56321;47.662;8.878;2023-02-12T02:12:13;0.77;65.69
69208;SHT31;56321;47.662;8.878;2023-02-12T02:14:58;0.74;65.67
69208;SHT31;56321;47.662;8.878;2023-02-12T02:17:57;0.73;66.07
69208;SHT31;56321;47.662;8.878;2023-02-12T02:32:11;0.66;65.95
69208;SHT31;56321;47.662;8.878;2023-02-12T02:34:49;0.61;66.07
69208;SHT31;56321;47.662;8.878;2023-02-12T02:37:40;0.58;66.01
69208;SHT31;56321;47.662;8.878;2023-02-12T02:40:31;0.58;66.38
69208;SHT31;56321;47.662;8.878;2023-02-12T02:43:01;0.57;65.99
69208;SHT31;56321;47.662;8.878;2023-02-12T02:50:39;0.53;66.22
69208;SHT31;56321;47.662;8.878;2023-02-12T02:53:12;0.50;66.11
69208;SHT31;56321;47.662;8.878;2023-02-12T02:55:43;0.50;66.15
69208;SHT31;56321;47.662;8.878;2023-02-12T02:58:15;0.47;66.28
69208;SHT31;56321;47.662;8.878;2023-02-12T03:00:44;0.47;66.31
69208;SHT31;56321;47.662;8.878;2023-02-12T03:03:23;0.45;66.37
69208;SHT31;56321;47.662;8.878;2023-02-12T03:05:54;0.42;66.28
69208;SHT31;56321;47.662;8.878;2023-02-12T03:08:27;0.42;66.45
69208;SHT31;56321;47.662;8.878;2023-02-12T03:10:59;0.45;66.51
69208;SHT31;56321;47.662;8.878;2023-02-12T03:13:42;0.42;66.63
69208;SHT31;56321;47.662;8.878;2023-02-12T03:16:15;0.40;66.57
69208;SHT31;56321;47.662;8.878;2023-02-12T03:19:07;0.39;67.19
69208;SHT31;56321;47.662;8.878;2023-02-12T03:21:40;0.40;66.54
69208;SHT31;56321;47.662;8.878;2023-02-12T03:24:17;0.42;66.58
69208;SHT31;56321;47.662;8.878;2023-02-12T03:26:46;0.40;66.75
69208;SHT31;56321;47.662;8.878;2023-02-12T03:29:13;0.37;66.81
69208;SHT31;56321;47.662;8.878;2023-02-12T03:31:55;0.37;67.24
69208;SHT31;56321;47.662;8.878;2023-02-12T03:37:02;0.36;66.93
69208;SHT31;56321;47.662;8.878;2023-02-12T03:39:37;0.37;66.85
69208;SHT31;56321;47.662;8.878;2023-02-12T03:42:38;0.36;67.13
69208;SHT31;56321;47.662;8.878;2023-02-12T03:53:14;0.35;67.12
69208;SHT31;56321;47.662;8.878;2023-02-12T03:55:41;0.32;67.02
69208;SHT31;56321;47.662;8.878;2023-02-12T03:58:13;0.35;67.23
69208;SHT31;56321;47.662;8.878;2023-02-12T04:00:40;0.32;67.35
69208;SHT31;56321;47.662;8.878;2023-02-12T04:03:06;0.33;67.37
69208;SHT31;56321;47.662;8.878;2023-02-12T04:05:31;0.32;67.34
69208;SHT31;56321;47.662;8.878;2023-02-12T04:07:58;0.28;67.37
69208;SHT31;56321;47.662;8.878;2023-02-12T04:11:02;0.28;67.57
69208;SHT31;56321;47.662;8.878;2023-02-12T04:13:38;0.28;67.12
69208;SHT31;56321;47.662;8.878;2023-02-12T04:18:45;0.28;67.24
69208;SHT31;56321;47.662;8.878;2023-02-12T04:26:56;0.23;67.71
69208;SHT31;56321;47.662;8.878;2023-02-12T04:29:47;0.28;67.49
69208;SHT31;56321;47.662;8.878;2023-02-12T04:32:34;0.22;67.47
69208;SHT31;56321;47.662;8.878;2023-02-12T04:37:34;0.22;67.33
69208;SHT31;56321;47.662;8.878;2023-02-12T04:40:03;0.19;67.34
69208;SHT31;56321;47.662;8.878;2023-02-12T04:42:30;0.20;67.52
69208;SHT31;56321;47.662;8.878;2023-02-12T04:44:55;0.20;67.43
69208;SHT31;56321;47.662;8.878;2023-02-12T04:47:20;0.19;67.48
69208;SHT31;56321;47.662;8.878;2023-02-12T04:49:46;0.19;67.44
69208;SHT31;56321;47.662;8.878;2023-02-12T04:52:11;0.16;67.43
69208;SHT31;56321;47.662;8.878;2023-02-12T04:54:36;0.12;67.41
69208;SHT31;56321;47.662;8.878;2023-02-12T04:57:02;0.15;67.39
69208;SHT31;56321;47.662;8.878;2023-02-12T04:59:27;0.13;67.52
69208;SHT31;56321;47.662;8.878;2023-02-12T05:01:53;0.12;67.55
69208;SHT31;56321;47.662;8.878;2023-02-12T05:04:18;0.12;67.54
69208;SHT31;56321;47.662;8.878;2023-02-12T05:06:44;0.06;67.50
69208;SHT31;56321;47.662;8.878;2023-02-12T05:09:15;0.08;67.32
69208;SHT31;56321;47.662;8.878;2023-02-12T05:11:41;0.09;67.53
69208;SHT31;56321;47.662;8.878;2023-02-12T05:14:07;0.09;67.76
69208;SHT31;56321;47.662;8.878;2023-02-12T05:16:32;0.10;67.72
69208;SHT31;56321;47.662;8.878;2023-02-12T05:18:57;0.08;67.76
69208;SHT31;56321;47.662;8.878;2023-02-12T05:21:23;0.09;67.73
69208;SHT31;56321;47.662;8.878;2023-02-12T05:23:48;0.08;67.86
69208;SHT31;56321;47.662;8.878;2023-02-12T05:26:16;0.09;67.93
69208;SHT31;56321;47.662;8.878;2023-02-12T05:28:42;0.09;67.98
69208;SHT31;56321;47.662;8.878;2023-02-12T05:31:09;0.09;67.96
69208;SHT31;56321;47.662;8.878;2023-02-12T05:33:35;0.09;68.02
69208;SHT31;56321;47.662;8.878;2023-02-12T05:36:05;0.10;67.98
69208;SHT31;56321;47.662;8.878;2023-02-12T05:38:31;0.12;68.30
69208;SHT31;56321;47.662;8.878;2023-02-12T05:41:04;0.15;68.28
69208;SHT31;56321;47.662;8.878;2023-02-12T05:43:30;0.16;68.31
69208;SHT31;56321;47.662;8.878;2023-02-12T05:45:58;0.22;68.10
69208;SHT31;56321;47.662;8.878;2023-02-12T05:48:24;0.22;68.08
69208;SHT31;56321;47.662;8.878;2023-02-12T05:50:49;0.26;68.10
69208;SHT31;56321;47.662;8.878;2023-02-12T05:53:15;0.25;68.22
69208;SHT31;56321;47.662;8.878;2023-02-12T05:55:40;0.28;68.19
69208;SHT31;56321;47.662;8.878;2023-02-12T05:58:05;0.26;68.28
69208;SHT31;56321;47.662;8.878;2023-02-12T06:00:31;0.28;68.27
69208;SHT31;56321;47.662;8.878;2023-02-12T06:02:56;0.29;68.14
69208;SHT31;56321;47.662;8.878;2023-02-12T06:05:21;0.32;68.03
69208;SHT31;56321;47.662;8.878;2023-02-12T06:07:47;0.30;68.25
69208;SHT31;56321;47.662;8.878;2023-02-12T06:10:12;0.30;68.12
69208;SHT31;56321;47.662;8.878;2023-02-12T06:12:37;0.30;68.11
69208;SHT31;56321;47.662;8.878;2023-02-12T06:15:03;0.25;68.11
69208;SHT31;56321;47.662;8.878;2023-02-12T06:17:28;0.25;68.20
69208;SHT31;56321;47.662;8.878;2023-02-12T06:19:53;0.25;68.28
69208;SHT31;56321;47.662;8.878;2023-02-12T06:22:19;0.23;68.47
69208;SHT31;56321;47.662;8.878;2023-02-12T06:24:44;0.22;68.47
69208;SHT31;56321;47.662;8.878;2023-02-12T06:27:09;0.23;68.56
69208;SHT31;56321;47.662;8.878;2023-02-12T06:29:35;0.23;68.58
69208;SHT31;56321;47.662;8.878;2023-02-12T06:32:00;0.25;68.49
69208;SHT31;56321;47.662;8.878;2023-02-12T06:34:25;0.26;68.47
69208;SHT31;56321;47.662;8.878;2023-02-12T06:36:51;0.26;68.46
69208;SHT31;56321;47.662;8.878;2023-02-12T06:39:16;0.26;68.53
69208;SHT31;56321;47.662;8.878;2023-02-12T06:41:42;0.23;68.53
69208;SHT31;56321;47.662;8.878;2023-02-12T06:44:10;0.26;68.50
69208;SHT31;56321;47.662;8.878;2023-02-12T06:46:35;0.26;68.46
69208;SHT31;56321;47.662;8.878;2023-02-12T06:49:01;0.23;68.51
69208;SHT31;56321;47.662;8.878;2023-02-12T06:51:27;0.22;68.50
69208;SHT31;56321;47.662;8.878;2023-02-12T06:53:54;0.22;68.50
69208;SHT31;56321;47.662;8.878;2023-02-12T06:56:21;0.23;68.53
69208;SHT31;56321;47.662;8.878;2023-02-12T06:58:52;0.23;68.53
69208;SHT31;56321;47.662;8.878;2023-02-12T07:01:20;0.28;68.69
69208;SHT31;56321;47.662;8.878;2023-02-12T07:03:51;0.33;68.68
69208;SHT31;56321;47.662;8.878;2023-02-12T07:06:17;0.36;68.88
69208;SHT31;56321;47.662;8.878;2023-02-12T07:08:43;0.40;69.04
69208;SHT31;56321;47.662;8.878;2023-02-12T07:11:08;0.43;69.13
69208;SHT31;56321;47.662;8.878;2023-02-12T07:13:34;0.47;69.11
69208;SHT31;56321;47.662;8.878;2023-02-12T07:16:11;0.50;69.02
69208;SHT31;56321;47.662;8.878;2023-02-12T07:18:37;0.57;69.13
69208;SHT31;56321;47.662;8.878;2023-02-12T07:21:04;0.66;69.07
69208;SHT31;56321;47.662;8.878;2023-02-12T07:23:30;0.68;68.96
69208;SHT31;56321;47.662;8.878;2023-02-12T07:26:01;0.74;68.92
69208;SHT31;56321;47.662;8.878;2023-02-12T07:28:27;0.80;68.85
69208;SHT31;56321;47.662;8.878;2023-02-12T07:30:52;0.87;68.79
69208;SHT31;56321;47.662;8.878;2023-02-12T07:33:18;0.91;68.80
69208;SHT31;56321;47.662;8.878;2023-02-12T07:35:44;0.99;68.74
69208;SHT31;56321;47.662;8.878;2023-02-12T07:38:10;1.05;68.86
69208;SHT31;56321;47.662;8.878;2023-02-12T07:40:35;1.14;68.77
69208;SHT31;56321;47.662;8.878;2023-02-12T07:43:00;1.26;68.92
69208;SHT31;56321;47.662;8.878;2023-02-12T07:45:26;1.43;68.72
69208;SHT31;56321;47.662;8.878;2023-02-12T07:47:51;1.59;68.52
69208;SHT31;56321;47.662;8.878;2023-02-12T07:50:16;1.70;68.35
69208;SHT31;56321;47.662;8.878;2023-02-12T07:52:42;1.78;68.13
69208;SHT31;56321;47.662;8.878;2023-02-12T07:55:08;1.87;68.29
69208;SHT31;56321;47.662;8.878;2023-02-12T07:57:34;2.07;68.47
69208;SHT31;56321;47.662;8.878;2023-02-12T08:00:00;2.33;68.26
69208;SHT31;56321;47.662;8.878;2023-02-12T08:02:25;2.63;67.89
69208;SHT31;56321;47.662;8.878;2023-02-12T08:04:55;2.81;67.45
69208;SHT31;56321;47.662;8.878;2023-02-12T08:07:20;2.97;67.21
69208;SHT31;56321;47.662;8.878;2023-02-12T08:09:46;3.01;67.31
69208;SHT31;56321;47.662;8.878;2023-02-12T08:12:11;3.07;67.26
69208;SHT31;56321;47.662;8.878;2023-02-12T08:14:36;3.07;67.28
69208;SHT31;56321;47.662;8.878;2023-02-12T08:17:02;3.07;67.38
69208;SHT31;56321;47.662;8.878;2023-02-12T08:19:27;3.05;67.42
69208;SHT31;56321;47.662;8.878;2023-02-12T08:21:54;3.03;67.63
69208;SHT31;56321;47.662;8.878;2023-02-12T08:24:20;3.07;68.00
69208;SHT31;56321;47.662;8.878;2023-02-12T08:26:48;3.07;68.26
69208;SHT31;56321;47.662;8.878;2023-02-12T08:29:16;3.09;68.48
69208;SHT31;56321;47.662;8.878;2023-02-12T08:31:45;3.17;68.75
69208;SHT31;56321;47.662;8.878;2023-02-12T08:34:22;3.18;68.73
69208;SHT31;56321;47.662;8.878;2023-02-12T08:36:49;3.25;68.58
69208;SHT31;56321;47.662;8.878;2023-02-12T08:39:15;3.28;68.86
69208;SHT31;56321;47.662;8.878;2023-02-12T08:41:41;3.39;68.81
69208;SHT31;56321;47.662;8.878;2023-02-12T08:44:07;3.55;68.79
69208;SHT31;56321;47.662;8.878;2023-02-12T08:46:38;3.80;68.60
69208;SHT31;56321;47.662;8.878;2023-02-12T08:49:07;4.21;68.45
69208;SHT31;56321;47.662;8.878;2023-02-12T08:51:36;4.84;68.03
69208;SHT31;56321;47.662;8.878;2023-02-12T08:54:04;5.60;66.97
69208;SHT31;56321;47.662;8.878;2023-02-12T08:56:31;6.42;65.42
69208;SHT31;56321;47.662;8.878;2023-02-12T08:58:58;7.27;64.02
69208;SHT31;56321;47.662;8.878;2023-02-12T09:01:25;8.17;62.42
69208;SHT31;56321;47.662;8.878;2023-02-12T09:03:51;9.05;60.58
69208;SHT31;56321;47.662;8.878;2023-02-12T09:06:19;9.74;59.01
69208;SHT31;56321;47.662;8.878;2023-02-12T09:08:44;10.33;57.60
69208;SHT31;56321;47.662;8.878;2023-02-12T09:11:22;10.74;56.26
69208;SHT31;56321;47.662;8.878;2023-02-12T09:13:51;11.14;55.13
69208;SHT31;56321;47.662;8.878;2023-02-12T09:16:17;11.38;54.44
69208;SHT31;56321;47.662;8.878;2023-02-12T09:18:42;11.56;53.74
69208;SHT31;56321;47.662;8.878;2023-02-12T09:21:14;11.73;52.40
69208;SHT31;56321;47.662;8.878;2023-02-12T09:23:41;11.79;52.54
69208;SHT31;56321;47.662;8.878;2023-02-12T09:26:09;11.98;52.26
69208;SHT31;56321;47.662;8.878;2023-02-12T09:28:35;12.34;51.65
69208;SHT31;56321;47.662;8.878;2023-02-12T09:31:12;12.75;50.21
69208;SHT31;56321;47.662;8.878;2023-02-12T09:33:39;13.06;49.99
69208;SHT31;56321;47.662;8.878;2023-02-12T09:36:08;13.27;49.54
69208;SHT31;56321;47.662;8.878;2023-02-12T09:38:34;13.44;49.36
69208;SHT31;56321;47.662;8.878;2023-02-12T09:43:52;13.75;47.79
69208;SHT31;56321;47.662;8.878;2023-02-12T09:46:26;14.03;47.68
69208;SHT31;56321;47.662;8.878;2023-02-12T09:51:28;14.75;46.59
69208;SHT31;56321;47.662;8.878;2023-02-12T09:54:02;15.19;44.77
69208;SHT31;56321;47.662;8.878;2023-02-12T09:56:29;15.78;44.62
69208;SHT31;56321;47.662;8.878;2023-02-12T09:58:59;16.43;43.04
69208;SHT31;56321;47.662;8.878;2023-02-12T10:01:26;17.11;42.55
69208;SHT31;56321;47.662;8.878;2023-02-12T10:03:52;17.70;41.28
69208;SHT31;56321;47.662;8.878;2023-02-12T10:06:23;18.29;40.35
69208;SHT31;56321;47.662;8.878;2023-02-12T10:16:37;20.03;36.83
69208;SHT31;56321;47.662;8.878;2023-02-12T10:24:48;20.93;32.63
69208;SHT31;56321;47.662;8.878;2023-02-12T10:27:24;20.18;34.63
69208;SHT31;56321;47.662;8.878;2023-02-12T10:29:56;19.14;36.00
69208;SHT31;56321;47.662;8.878;2023-02-12T10:32:27;18.14;37.40
69208;SHT31;56321;47.662;8.878;2023-02-12T10:34:56;17.45;38.48
69208;SHT31;56321;47.662;8.878;2023-02-12T10:42:48;18.11;38.00
69208;SHT31;56321;47.662;8.878;2023-02-12T10:45:18;18.44;37.48
69208;SHT31;56321;47.662;8.878;2023-02-12T10:47:45;19.17;37.19
69208;SHT31;56321;47.662;8.878;2023-02-12T10:50:42;20.10;33.96
69208;SHT31;56321;47.662;8.878;2023-02-12T10:53:23;20.82;33.96
69208;SHT31;56321;47.662;8.878;2023-02-12T10:55:49;21.41;34.22
69208;SHT31;56321;47.662;8.878;2023-02-12T10:58:26;21.97;33.35
69208;SHT31;56321;47.662;8.878;2023-02-12T11:00:57;22.42;32.45
69208;SHT31;56321;47.662;8.878;2023-02-12T11:03:28;22.90;31.69
69208;SHT31;56321;47.662;8.878;2023-02-12T11:05:54;23.26;31.69
69208;SHT31;56321;47.662;8.878;2023-02-12T11:08:32;23.56;29.72
69208;SHT31;56321;47.662;8.878;2023-02-12T11:13:47;24.47;30.08
69208;SHT31;56321;47.662;8.878;2023-02-12T11:16:32;24.69;28.05
69208;SHT31;56321;47.662;8.878;2023-02-12T11:19:04;24.99;28.58
69208;SHT31;56321;47.662;8.878;2023-02-12T11:21:30;25.03;28.90
69208;SHT31;56321;47.662;8.878;2023-02-12T11:23:56;24.97;28.80
69208;SHT31;56321;47.662;8.878;2023-02-12T11:26:27;25.04;27.85
69208;SHT31;56321;47.662;8.878;2023-02-12T11:29:18;25.13;26.75
69208;SHT31;56321;47.662;8.878;2023-02-12T11:31:59;25.35;27.30
69208;SHT31;56321;47.662;8.878;2023-02-12T11:34:24;25.59;28.19
69208;SHT31;56321;47.662;8.878;2023-02-12T11:36:52;25.62;28.12
69208;SHT31;56321;47.662;8.878;2023-02-12T11:39:27;25.86;28.06
69208;SHT31;56321;47.662;8.878;2023-02-12T11:41:58;26.16;27.64
69208;SHT31;56321;47.662;8.878;2023-02-12T11:44:35;26.54;26.32
69208;SHT31;56321;47.662;8.878;2023-02-12T11:47:05;26.96;27.02
69208;SHT31;56321;47.662;8.878;2023-02-12T11:49:37;27.25;26.35
69208;SHT31;56321;47.662;8.878;2023-02-12T11:52:03;27.60;26.35
69208;SHT31;56321;47.662;8.878;2023-02-12T11:54:37;27.88;25.67
69208;SHT31;56321;47.662;8.878;2023-02-12T11:57:03;28.05;25.81
69208;SHT31;56321;47.662;8.878;2023-02-12T11:59:42;28.09;24.23
69208;SHT31;56321;47.662;8.878;2023-02-12T12:02:22;28.26;24.71
69208;SHT31;56321;47.662;8.878;2023-02-12T12:04:51;28.42;25.20
69208;SHT31;56321;47.662;8.878;2023-02-12T12:07:24;28.53;24.71
69208;SHT31;56321;47.662;8.878;2023-02-12T12:12:58;28.41;24.73
69208;SHT31;56321;47.662;8.878;2023-02-12T12:15:32;28.22;24.21
69208;SHT31;56321;47.662;8.878;2023-02-12T12:18:37;27.91;23.83
69208;SHT31;56321;47.662;8.878;2023-02-12T12:24:23;27.49;24.90
69208;SHT31;56321;47.662;8.878;2023-02-12T12:30:32;26.58;26.39
69208;SHT31;56321;47.662;8.878;2023-02-12T12:32:54;26.16;27.07
69208;SHT31;56321;47.662;8.878;2023-02-12T12:35:30;25.95;26.82
69208;SHT31;56321;47.662;8.878;2023-02-12T12:38:06;25.85;27.07
69208;SHT31;56321;47.662;8.878;2023-02-12T12:40:47;25.84;26.82
69208;SHT31;56321;47.662;8.878;2023-02-12T12:48:35;24.62;27.41
69208;SHT31;56321;47.662;8.878;2023-02-12T13:10:11;19.18;34.09
69208;SHT31;56321;47.662;8.878;2023-02-12T13:12:45;18.66;34.42
69208;SHT31;56321;47.662;8.878;2023-02-12T13:18:10;17.66;36.30
69208;SHT31;56321;47.662;8.878;2023-02-12T13:20:45;17.36;36.97
69208;SHT31;56321;47.662;8.878;2023-02-12T13:23:33;17.02;38.13
69208;SHT31;56321;47.662;8.878;2023-02-12T13:26:23;16.68;39.34
69208;SHT31;56321;47.662;8.878;2023-02-12T13:29:05;16.37;39.21
69208;SHT31;56321;47.662;8.878;2023-02-12T13:31:36;16.05;39.46
69208;SHT31;56321;47.662;8.878;2023-02-12T13:34:08;15.77;40.19
69208;SHT31;56321;47.662;8.878;2023-02-12T13:36:36;15.62;40.80
69208;SHT31;56321;47.662;8.878;2023-02-12T13:42:20;15.32;42.44
69208;SHT31;56321;47.662;8.878;2023-02-12T13:45:03;15.16;42.30
69208;SHT31;56321;47.662;8.878;2023-02-12T13:47:46;14.99;43.08
69208;SHT31;56321;47.662;8.878;2023-02-12T13:50:50;14.79;43.46
69208;SHT31;56321;47.662;8.878;2023-02-12T13:53:45;14.69;44.26
69208;SHT31;56321;47.662;8.878;2023-02-12T13:58:53;14.47;43.83
69208;SHT31;56321;47.662;8.878;2023-02-12T14:01:45;14.34;45.10
69208;SHT31;56321;47.662;8.878;2023-02-12T14:04:25;14.28;44.93
69208;SHT31;56321;47.662;8.878;2023-02-12T14:06:52;14.18;44.81
69208;SHT31;56321;47.662;8.878;2023-02-12T14:09:21;14.13;45.29
69208;SHT31;56321;47.662;8.878;2023-02-12T14:11:52;14.06;45.53
69208;SHT31;56321;47.662;8.878;2023-02-12T14:14:36;13.99;46.24
69208;SHT31;56321;47.662;8.878;2023-02-12T14:28:31;13.72;47.89
69208;SHT31;56321;47.662;8.878;2023-02-12T14:33:42;13.63;47.23
69208;SHT31;56321;47.662;8.878;2023-02-12T14:41:24;13.47;48.94
69208;SHT31;56321;47.662;8.878;2023-02-12T14:46:54;13.37;48.67
69208;SHT31;56321;47.662;8.878;2023-02-12T14:51:56;13.30;49.07
69208;SHT31;56321;47.662;8.878;2023-02-12T14:54:31;13.23;49.65
69208;SHT31;56321;47.662;8.878;2023-02-12T14:57:01;13.15;49.46
69208;SHT31;56321;47.662;8.878;2023-02-12T14:59:32;13.10;49.89
69208;SHT31;56321;47.662;8.878;2023-02-12T15:01:59;13.06;49.87
69208;SHT31;56321;47.662;8.878;2023-02-12T15:04:27;12.96;50.16
69208;SHT31;56321;47.662;8.878;2023-02-12T15:07:00;12.87;50.50
69208;SHT31;56321;47.662;8.878;2023-02-12T15:09:35;12.79;50.74
69208;SHT31;56321;47.662;8.878;2023-02-12T15:12:29;12.69;51.52
69208;SHT31;56321;47.662;8.878;2023-02-12T15:15:21;12.60;51.88
69208;SHT31;56321;47.662;8.878;2023-02-12T15:18:12;12.48;52.22
69208;SHT31;56321;47.662;8.878;2023-02-12T15:23:42;12.25;52.00
69208;SHT31;56321;47.662;8.878;2023-02-12T15:26:27;12.14;52.97
69208;SHT31;56321;47.662;8.878;2023-02-12T15:28:53;12.08;52.44
69208;SHT31;56321;47.662;8.878;2023-02-12T15:31:22;11.98;52.74
69208;SHT31;56321;47.662;8.878;2023-02-12T15:33:51;11.88;52.83
69208;SHT31;56321;47.662;8.878;2023-02-12T15:36:19;11.81;53.09
69208;SHT31;56321;47.662;8.878;2023-02-12T15:38:51;11.73;53.26
69208;SHT31;56321;47.662;8.878;2023-02-12T15:41:27;11.60;53.55
69208;SHT31;56321;47.662;8.878;2023-02-12T15:43:52;11.52;53.45
69208;SHT31;56321;47.662;8.878;2023-02-12T15:46:18;11.42;53.73
69208;SHT31;56321;47.662;8.878;2023-02-12T15:48:43;11.31;54.05
69208;SHT31;56321;47.662;8.878;2023-02-12T15:53:46;11.11;54.63
69208;SHT31;56321;47.662;8.878;2023-02-12T15:56:14;11.00;54.93
69208;SHT31;56321;47.662;8.878;2023-02-12T15:58:52;10.88;55.10
69208;SHT31;56321;47.662;8.878;2023-02-12T16:01:23;10.81;55.29
69208;SHT31;56321;47.662;8.878;2023-02-12T16:03:51;10.74;55.51
69208;SHT31;56321;47.662;8.878;2023-02-12T16:06:19;10.66;55.73
69208;SHT31;56321;47.662;8.878;2023-02-12T16:09:07;10.54;56.59
69208;SHT31;56321;47.662;8.878;2023-02-12T16:11:33;10.45;56.05
69208;SHT31;56321;47.662;8.878;2023-02-12T16:14:01;10.36;56.35
69208;SHT31;56321;47.662;8.878;2023-02-12T16:16:37;10.29;56.53
69208;SHT31;56321;47.662;8.878;2023-02-12T16:21:43;10.05;57.00
69208;SHT31;56321;47.662;8.878;2023-02-12T16:24:21;9.97;57.67
69208;SHT31;56321;47.662;8.878;2023-02-12T16:26:49;9.88;57.41
69208;SHT31;56321;47.662;8.878;2023-02-12T16:29:16;9.79;57.74
69208;SHT31;56321;47.662;8.878;2023-02-12T16:31:55;9.71;58.40
69208;SHT31;56321;47.662;8.878;2023-02-12T16:34:35;9.64;58.80
69208;SHT31;56321;47.662;8.878;2023-02-12T16:37:01;9.55;58.31
69208;SHT31;56321;47.662;8.878;2023-02-12T16:42:17;9.37;58.63
69208;SHT31;56321;47.662;8.878;2023-02-12T16:44:46;9.27;58.80
69208;SHT31;56321;47.662;8.878;2023-02-12T16:47:19;9.22;59.13
69208;SHT31;56321;47.662;8.878;2023-02-12T16:49:56;9.11;59.37
69208;SHT31;56321;47.662;8.878;2023-02-12T16:52:37;8.96;60.08
69208;SHT31;56321;47.662;8.878;2023-02-12T16:55:05;8.89;59.68
69208;SHT31;56321;47.662;8.878;2023-02-12T16:57:32;8.81;59.94
69208;SHT31;56321;47.662;8.878;2023-02-12T16:59:57;8.72;60.20
69208;SHT31;56321;47.662;8.878;2023-02-12T17:02:22;8.68;60.29
69208;SHT31;56321;47.662;8.878;2023-02-12T17:04:48;8.55;60.54
69208;SHT31;56321;47.662;8.878;2023-02-12T17:07:20;8.45;61.23
69208;SHT31;56321;47.662;8.878;2023-02-12T17:09:46;8.33;61.09
69208;SHT31;56321;47.662;8.878;2023-02-12T17:12:11;8.26;61.40
69208;SHT31;56321;47.662;8.878;2023-02-12T17:14:36;8.20;61.71
69208;SHT31;56321;47.662;8.878;2023-02-12T17:17:02;8.16;61.78
69208;SHT31;56321;47.662;8.878;2023-02-12T17:19:27;8.13;62.02
69208;SHT31;56321;47.662;8.878;2023-02-12T17:21:53;8.09;62.19
69208;SHT31;56321;47.662;8.878;2023-02-12T17:24:21;8.05;62.32
69208;SHT31;56321;47.662;8.878;2023-02-12T17:26:49;8.02;62.42
69208;SHT31;56321;47.662;8.878;2023-02-12T17:29:19;8.00;62.58
69208;SHT31;56321;47.662;8.878;2023-02-12T17:31:45;7.96;62.44
69208;SHT31;56321;47.662;8.878;2023-02-12T17:34:12;7.92;62.57
69208;SHT31;56321;47.662;8.878;2023-02-12T17:36:38;7.86;62.72
69208;SHT31;56321;47.662;8.878;2023-02-12T17:39:05;7.81;62.78
69208;SHT31;56321;47.662;8.878;2023-02-12T17:41:31;7.75;62.81
69208;SHT31;56321;47.662;8.878;2023-02-12T17:43:57;7.71;63.01
69208;SHT31;56321;47.662;8.878;2023-02-12T17:46:26;7.69;63.16
69208;SHT31;56321;47.662;8.878;2023-02-12T17:48:51;7.67;63.11
69208;SHT31;56321;47.662;8.878;2023-02-12T17:51:17;7.59;63.37
69208;SHT31;56321;47.662;8.878;2023-02-12T17:53:43;7.57;63.57
69208;SHT31;56321;47.662;8.878;2023-02-12T17:56:11;7.54;63.72
69208;SHT31;56321;47.662;8.878;2023-02-12T17:58:37;7.51;63.82
69208;SHT31;56321;47.662;8.878;2023-02-12T18:01:05;7.48;63.78
69208;SHT31;56321;47.662;8.878;2023-02-12T18:03:30;7.47;63.78
69208;SHT31;56321;47.662;8.878;2023-02-12T18:05:56;7.41;63.96
69208;SHT31;56321;47.662;8.878;2023-02-12T18:08:21;7.40;64.13
69208;SHT31;56321;47.662;8.878;2023-02-12T18:10:46;7.35;64.27
69208;SHT31;56321;47.662;8.878;2023-02-12T18:13:12;7.32;64.25
69208;SHT31;56321;47.662;8.878;2023-02-12T18:15:38;7.28;64.27
69208;SHT31;56321;47.662;8.878;2023-02-12T18:18:04;7.27;64.10
69208;SHT31;56321;47.662;8.878;2023-02-12T18:20:29;7.21;64.34
69208;SHT31;56321;47.662;8.878;2023-02-12T18:22:55;7.17;64.54
69208;SHT31;56321;47.662;8.878;2023-02-12T18:25:20;7.11;64.63